createdAt,value
2023-01-04T00:01:40.579Z,74.21
2023-01-04T00:06:43.364Z,73.32
2023-01-04T00:11:46.082Z,73.07
2023-01-04T00:16:48.984Z,72.97
2023-01-04T00:21:51.785Z,72.81
2023-01-04T00:26:54.459Z,72.98
2023-01-04T00:31:58.119Z,72.77
2023-01-04T00:37:00.862Z,72.38
2023-01-04T00:42:06.169Z,72.44
2023-01-04T00:47:08.925Z,72.86
2023-01-04T00:52:11.729Z,73.55
2023-01-04T00:57:14.601Z,74.43
2023-01-04T01:02:17.719Z,75.33
2023-01-04T01:07:20.648Z,75.76
2023-01-04T01:12:23.409Z,76.32
2023-01-04T01:17:26.048Z,77.03
2023-01-04T01:22:28.715Z,76.98
2023-01-04T01:27:31.390Z,77.23
2023-01-04T01:32:34.123Z,77.13
2023-01-04T01:37:36.797Z,78.30
2023-01-04T01:42:39.569Z,78.19
2023-01-04T01:47:46.648Z,78.19
2023-01-04T01:52:50.163Z,78.78
2023-01-04T01:57:54.115Z,78.97
2023-01-04T02:03:19.622Z,79.46
2023-01-04T02:08:25.197Z,79.28
2023-01-04T02:13:49.297Z,79.70
2023-01-04T02:19:49.125Z,80.20
2023-01-04T02:25:09.943Z,80.48
2023-01-04T02:30:43.760Z,80.35
2023-01-04T02:36:00.145Z,80.68
2023-01-04T02:41:11.594Z,80.89
2023-01-04T02:46:27.413Z,81.59
2023-01-04T02:51:33.580Z,81.83
2023-01-04T02:57:02.681Z,81.86
2023-01-04T03:02:52.578Z,81.82
2023-01-04T03:08:01.937Z,82.20
2023-01-04T03:13:28.260Z,82.04
2023-01-04T03:18:35.116Z,82.00
2023-01-04T03:23:58.119Z,82.37
2023-01-04T03:29:25.557Z,83.01
2023-01-04T03:34:46.853Z,83.03
2023-01-04T03:40:42.371Z,83.14
2023-01-04T03:46:07.714Z,83.15
2023-01-04T03:51:26.404Z,82.90
2023-01-04T03:56:30.161Z,83.26
2023-01-04T04:01:32.969Z,83.17
2023-01-04T04:06:54.182Z,82.32
2023-01-04T04:11:56.979Z,82.68
2023-01-04T04:17:01.212Z,83.25
2023-01-04T04:22:04.254Z,82.85
2023-01-04T04:27:06.964Z,82.59
2023-01-04T04:32:09.639Z,83.57
2023-01-04T04:37:12.542Z,83.77
2023-01-04T04:42:15.215Z,83.33
2023-01-04T04:47:17.895Z,84.28
2023-01-04T04:52:20.655Z,83.53
2023-01-04T04:57:23.372Z,83.80
2023-01-04T05:02:26.485Z,84.34
2023-01-04T05:07:29.365Z,84.50
2023-01-04T05:12:55.836Z,84.02
2023-01-04T05:18:00.495Z,84.30
2023-01-04T05:23:03.250Z,83.92
2023-01-04T05:28:06.869Z,84.42
2023-01-04T05:33:10.202Z,83.97
2023-01-04T05:38:13.464Z,83.75
2023-01-04T05:43:16.930Z,83.63
2023-01-04T05:48:19.907Z,83.36
2023-01-04T05:53:22.652Z,83.99
2023-01-04T05:58:25.545Z,84.43
2023-01-04T06:03:28.588Z,84.42
2023-01-04T06:08:31.396Z,84.11
2023-01-04T06:13:34.237Z,84.11
2023-01-04T06:18:37.117Z,84.28
2023-01-04T06:23:39.836Z,84.44
2023-01-04T06:28:42.526Z,84.83
2023-01-04T06:33:45.257Z,84.81
2023-01-04T06:38:49.052Z,84.71
2023-01-04T06:43:51.750Z,84.49
2023-01-04T06:48:54.563Z,83.88
2023-01-04T06:53:57.333Z,83.64
2023-01-04T06:59:00.290Z,83.16
2023-01-04T07:04:03.331Z,83.36
2023-01-04T07:09:06.082Z,84.07
2023-01-04T07:14:08.825Z,83.95
2023-01-04T07:19:11.482Z,82.27
2023-01-04T07:24:14.219Z,82.94
2023-01-04T07:29:19.585Z,83.17
2023-01-04T07:34:24.622Z,83.61
2023-01-04T07:39:27.346Z,84.34
2023-01-04T07:44:30.074Z,84.72
2023-01-04T07:49:32.808Z,84.69
2023-01-04T07:54:35.548Z,84.45
2023-01-04T07:59:38.243Z,84.84
2023-01-04T08:04:41.117Z,85.13
2023-01-04T08:09:43.934Z,85.44
2023-01-04T08:14:46.653Z,85.41
2023-01-04T08:19:49.335Z,85.03
2023-01-04T08:24:52.007Z,86.01
2023-01-04T08:29:54.689Z,86.09
2023-01-04T08:34:57.439Z,85.69
2023-01-04T08:40:00.160Z,86.13
2023-01-04T08:45:02.932Z,86.19
2023-01-04T08:50:10.780Z,86.17
2023-01-04T08:55:16.794Z,85.88
2023-01-04T09:00:22.199Z,85.66
2023-01-04T09:05:26.316Z,85.83
2023-01-04T09:10:29.037Z,86.15
2023-01-04T09:15:33.172Z,86.34
2023-01-04T09:20:35.822Z,86.36
2023-01-04T09:25:41.682Z,87.32
2023-01-04T09:30:44.376Z,87.04
2023-01-04T09:35:47.028Z,86.65
2023-01-04T09:40:54.926Z,87.66
2023-01-04T09:46:02.071Z,87.69
2023-01-04T09:51:06.682Z,87.34
2023-01-04T09:56:24.733Z,87.53
2023-01-04T10:01:49.835Z,86.99
2023-01-04T10:06:53.341Z,86.47
2023-01-04T10:12:26.732Z,87.31
2023-01-04T10:23:32.307Z,86.87
2023-01-04T10:28:57.591Z,86.77
2023-01-04T10:34:29.599Z,87.04
2023-01-04T10:39:34.230Z,86.72
2023-01-04T10:44:50.958Z,86.90
2023-01-04T10:49:59.689Z,85.99
2023-01-04T10:55:07.265Z,85.47
2023-01-04T11:00:20.177Z,85.67
2023-01-04T11:05:43.270Z,85.44
2023-01-04T11:10:55.364Z,84.91
2023-01-04T11:15:58.532Z,85.28
2023-01-04T11:21:04.259Z,85.61
2023-01-04T11:26:16.742Z,85.50
2023-01-04T11:31:31.353Z,85.51
2023-01-04T11:36:38.212Z,85.78
2023-01-04T11:41:40.652Z,85.59
2023-01-04T11:46:43.104Z,86.58
2023-01-04T11:51:45.648Z,85.94
2023-01-04T11:56:58.042Z,86.80
2023-01-04T12:02:42.123Z,86.44
2023-01-04T12:07:41.794Z,86.15
2023-01-04T12:12:44.252Z,85.52
2023-01-04T12:17:48.993Z,85.85
2023-01-04T12:22:51.562Z,86.41
2023-01-04T12:27:55.891Z,85.79
2023-01-04T12:32:58.414Z,86.44
2023-01-04T12:38:03.799Z,86.81
2023-01-04T12:43:15.275Z,86.62
2023-01-04T12:48:48.738Z,86.59
2023-01-04T12:53:52.377Z,86.21
2023-01-04T12:59:27.169Z,85.19
2023-01-04T13:04:30.885Z,85.44
2023-01-04T13:09:33.386Z,85.45
2023-01-04T13:14:40.067Z,85.72
2023-01-04T13:19:43.996Z,86.02
2023-01-04T13:24:46.587Z,86.42
2023-01-04T13:29:49.890Z,86.11
2023-01-04T13:34:54.448Z,85.99
2023-01-04T13:40:17.496Z,86.37
2023-01-04T13:45:23.073Z,86.62
2023-01-04T13:50:33.251Z,85.96
2023-01-04T13:55:39.060Z,85.52
2023-01-04T14:00:45.501Z,85.49
2023-01-04T14:05:49.321Z,85.02
2023-01-04T14:10:51.864Z,84.67
2023-01-04T14:16:12.960Z,84.78
2023-01-04T14:21:16.505Z,84.54
2023-01-04T14:26:32.488Z,84.24
2023-01-04T14:31:35.969Z,84.52
2023-01-04T14:36:38.648Z,84.44
2023-01-04T14:41:42.383Z,84.66
2023-01-04T14:46:47.458Z,84.16
2023-01-04T14:52:02.177Z,84.78
2023-01-04T14:57:09.576Z,85.10
2023-01-04T15:02:13.368Z,84.69
2023-01-04T15:07:31.133Z,84.94
2023-01-04T15:12:33.788Z,85.14
2023-01-04T15:17:36.443Z,84.70
2023-01-04T15:22:39.639Z,84.85
2023-01-04T15:27:43.131Z,84.84
2023-01-04T15:32:45.907Z,85.04
2023-01-04T15:37:49.169Z,84.84
2023-01-04T15:43:00.951Z,85.01
2023-01-04T15:48:06.063Z,85.19
2023-01-04T15:53:08.773Z,84.84
2023-01-04T15:58:11.249Z,85.69
2023-01-04T16:03:13.783Z,85.27
2023-01-04T16:08:16.516Z,84.77
2023-01-04T16:13:19.013Z,84.76
2023-01-04T16:18:21.422Z,85.15
2023-01-04T16:23:23.920Z,85.03
2023-01-04T16:28:26.365Z,85.75
2023-01-04T16:33:29.079Z,85.46
2023-01-04T16:38:31.737Z,85.02
2023-01-04T16:43:36.107Z,85.40
2023-01-04T16:48:48.830Z,85.33
2023-01-04T16:53:51.503Z,84.55
2023-01-04T16:58:54.120Z,85.16
2023-01-04T17:03:59.440Z,85.49
2023-01-04T17:09:03.710Z,84.58
2023-01-04T17:14:06.756Z,84.60
2023-01-04T17:19:09.955Z,84.41
2023-01-04T17:24:12.591Z,84.19
2023-01-04T17:29:15.820Z,83.97
2023-01-04T17:34:22.511Z,83.99
2023-01-04T17:39:27.231Z,84.54
2023-01-04T17:44:29.893Z,84.40
2023-01-04T17:49:32.806Z,84.58
2023-01-04T17:54:35.387Z,84.34
2023-01-04T17:59:38.041Z,85.09
2023-01-04T18:04:40.533Z,84.64
2023-01-04T18:09:43.012Z,84.63
2023-01-04T18:14:45.625Z,84.74
2023-01-04T18:19:48.108Z,84.80
2023-01-04T18:24:50.516Z,84.73
2023-01-04T18:29:53.457Z,85.08
2023-01-04T18:34:56.023Z,85.94
2023-01-04T18:39:58.620Z,85.57
2023-01-04T18:45:01.149Z,85.85
2023-01-04T18:50:05.302Z,86.14
2023-01-04T18:55:08.032Z,85.43
2023-01-04T19:00:10.977Z,85.89
2023-01-04T19:05:13.800Z,85.65
2023-01-04T19:10:16.549Z,85.32
2023-01-04T19:15:19.048Z,84.24
2023-01-04T19:20:21.479Z,84.11
2023-01-04T19:25:28.222Z,84.05
2023-01-04T19:30:31.178Z,83.64
2023-01-04T19:35:33.822Z,84.10
2023-01-04T19:40:36.320Z,84.20
2023-01-04T19:45:39.506Z,84.59
2023-01-04T19:50:42.068Z,83.51
2023-01-04T19:55:44.628Z,84.33
2023-01-04T20:00:54.047Z,83.45
2023-01-04T20:06:00.932Z,84.04
2023-01-04T20:11:03.850Z,83.82
2023-01-04T20:16:06.737Z,84.40
2023-01-04T20:21:10.885Z,84.47
2023-01-04T20:26:16.215Z,84.49
2023-01-04T20:31:19.004Z,84.34
2023-01-04T20:36:22.737Z,84.25
2023-01-04T20:41:25.631Z,84.73
2023-01-04T20:46:32.025Z,84.87
2023-01-04T20:51:34.523Z,84.83
2023-01-04T20:56:39.014Z,84.30
2023-01-04T21:01:41.543Z,84.11
2023-01-04T21:06:44.301Z,84.10
2023-01-04T21:11:46.790Z,84.29
2023-01-04T21:16:49.291Z,84.39
2023-01-04T21:21:51.796Z,84.91
2023-01-04T21:26:54.338Z,85.35
2023-01-04T21:31:56.949Z,84.96
2023-01-04T21:36:59.571Z,85.90
2023-01-04T21:42:02.054Z,85.27
2023-01-04T21:47:04.576Z,86.17
2023-01-04T21:52:07.121Z,85.13
2023-01-04T21:57:09.633Z,84.56
2023-01-04T22:02:22.348Z,84.61
2023-01-04T22:07:24.960Z,83.83
2023-01-04T22:12:27.433Z,83.52
2023-01-04T22:17:30.069Z,83.74
2023-01-04T22:22:32.567Z,83.30
2023-01-04T22:27:35.069Z,83.93
2023-01-04T22:32:37.619Z,83.62
2023-01-04T22:37:40.052Z,84.14
2023-01-04T22:42:42.624Z,84.42
2023-01-04T22:47:45.100Z,83.77
2023-01-04T22:52:51.085Z,83.99
2023-01-04T22:57:53.766Z,83.48
2023-01-04T23:02:56.408Z,83.77
2023-01-04T23:07:58.899Z,83.59
2023-01-04T23:13:01.338Z,83.40
2023-01-04T23:18:03.796Z,83.28
2023-01-04T23:23:06.260Z,83.26
2023-01-04T23:28:08.849Z,82.66
2023-01-04T23:33:11.791Z,82.60
2023-01-04T23:38:14.268Z,81.82
2023-01-04T23:43:16.675Z,81.76
2023-01-04T23:48:19.019Z,81.25
2023-01-04T23:53:21.668Z,81.07
2023-01-04T23:58:24.412Z,80.22
